createdAt,value
2023-02-03T04:42:19.397Z,101164.50
2023-02-03T04:45:22.656Z,101166.22
2023-02-03T04:48:25.333Z,101174.97
2023-02-03T04:51:28.312Z,101167.34
2023-02-03T04:54:30.902Z,101145.84
2023-02-03T04:57:33.780Z,101156.22
2023-02-03T05:00:36.669Z,101150.22
2023-02-03T05:03:39.644Z,101144.22
2023-02-03T05:06:42.439Z,101147.72
2023-02-03T05:09:45.271Z,101152.91
2023-02-03T05:12:47.951Z,101146.81
2023-02-03T05:15:51.097Z,101135.59
2023-02-03T05:18:54.080Z,101145.97
2023-02-03T05:21:57.076Z,101151.19
2023-02-03T05:24:59.700Z,101153.75
2023-02-03T05:28:02.685Z,101166.72
2023-02-03T05:31:05.552Z,101166.72
2023-02-03T05:34:08.557Z,101161.56
2023-02-03T05:37:11.053Z,101167.56
2023-02-03T05:40:32.752Z,101158.94
2023-02-03T05:43:35.785Z,101167.62
2023-02-03T05:46:38.829Z,101165.09
2023-02-03T05:49:41.433Z,101164.22
2023-02-03T05:52:44.478Z,101163.38
2023-02-03T05:55:47.319Z,101174.62
2023-02-03T05:58:53.280Z,101182.44
2023-02-03T06:01:56.014Z,101178.19
2023-02-03T06:04:58.961Z,101178.19
2023-02-03T06:08:01.661Z,101173.91
2023-02-03T06:11:04.864Z,101165.19
2023-02-03T06:14:07.560Z,101160.03
2023-02-03T06:17:10.470Z,101158.28
2023-02-03T06:20:15.428Z,101160.03
2023-02-03T06:23:19.271Z,101172.19
2023-02-03T06:26:21.920Z,101166.09
2023-02-03T06:29:25.203Z,101172.19
2023-02-03T06:32:28.100Z,101179.09
2023-02-03T06:35:31.107Z,101179.97
2023-02-03T06:38:33.776Z,101178.25
2023-02-03T06:41:36.773Z,101176.50
2023-02-03T06:44:39.430Z,101183.44
2023-02-03T06:47:43.877Z,101183.44
2023-02-03T06:50:48.603Z,101190.38
2023-02-03T06:53:52.050Z,101186.91
2023-02-03T06:56:54.710Z,101191.22
2023-02-03T06:59:57.683Z,101192.09
2023-02-03T07:03:02.363Z,101189.50
2023-02-03T07:06:06.072Z,101186.91
2023-02-03T07:09:08.552Z,101177.38
2023-02-03T07:12:11.525Z,101183.44
2023-02-03T07:15:14.262Z,101173.91
2023-02-03T07:18:43.438Z,101175.66
2023-02-03T07:21:42.157Z,101178.22
2023-02-03T07:24:44.945Z,101179.09
2023-02-03T07:27:48.338Z,101173.91
2023-02-03T07:30:51.424Z,101183.41
2023-02-03T07:33:54.258Z,101180.75
2023-02-03T07:36:57.841Z,101177.28
2023-02-03T07:40:00.543Z,101179.87
2023-02-03T07:43:03.625Z,101177.28
2023-02-03T07:46:06.308Z,101178.16
2023-02-03T07:49:11.377Z,101192.87
2023-02-03T07:52:14.099Z,101196.34
2023-02-03T07:55:17.069Z,101188.56
2023-02-03T07:58:19.816Z,101185.97
2023-02-03T08:01:23.319Z,101194.62
2023-02-03T08:04:26.358Z,101202.44
2023-02-03T08:07:28.990Z,101208.50
2023-02-03T08:10:32.080Z,101201.53
2023-02-03T08:13:34.877Z,101202.41
2023-02-03T08:16:37.958Z,101195.47
2023-02-03T08:19:40.596Z,101198.06
2023-02-03T08:22:43.671Z,101196.34
2023-02-03T08:25:51.723Z,101196.31
2023-02-03T08:28:54.920Z,101194.59
2023-02-03T08:31:58.745Z,101202.38
2023-02-03T08:35:02.023Z,101202.41
2023-02-03T08:38:04.777Z,101205.88
2023-02-03T08:41:18.039Z,101205.00
2023-02-03T08:44:20.832Z,101204.13
2023-02-03T08:47:24.044Z,101200.66
2023-02-03T08:50:30.059Z,101213.69
2023-02-03T08:53:33.209Z,101206.72
2023-02-03T08:56:35.847Z,101204.97
2023-02-03T08:59:42.488Z,101217.09
2023-02-03T09:02:45.192Z,101208.38
2023-02-03T09:05:48.361Z,101218.78
2023-02-03T09:08:50.938Z,101217.09
2023-02-03T09:12:02.126Z,101214.44
2023-02-03T09:15:05.450Z,101210.09
2023-02-03T09:18:08.431Z,101214.50
2023-02-03T09:21:20.890Z,101210.25
2023-02-03T09:24:34.697Z,101216.37
2023-02-03T09:27:37.314Z,101219.81
2023-02-03T09:30:40.624Z,101221.56
2023-02-03T09:33:43.873Z,101213.75
2023-02-03T09:36:47.738Z,101211.12
2023-02-03T09:39:50.557Z,101206.75
2023-02-03T09:43:25.287Z,101202.38
2023-02-03T09:46:40.307Z,101197.13
2023-02-03T09:49:50.379Z,101197.09
2023-02-03T09:52:53.471Z,101188.47
2023-02-03T09:55:58.761Z,101180.69
2023-02-03T09:59:02.998Z,101163.41
2023-02-03T10:02:29.151Z,101153.94
2023-02-03T10:05:55.831Z,101152.19
2023-02-03T10:09:34.997Z,101143.56
2023-02-03T10:12:53.004Z,101128.87
2023-02-03T10:16:04.242Z,101118.50
2023-02-03T10:19:17.534Z,101107.28
2023-02-03T10:22:28.486Z,101109.00
2023-02-03T10:25:57.349Z,101090.78
2023-02-03T10:29:14.191Z,101087.34
2023-02-03T10:32:17.155Z,101069.09
2023-02-03T10:35:21.835Z,101062.19
2023-02-03T10:38:37.301Z,101057.84
2023-02-03T10:41:40.308Z,101057.84
2023-02-03T10:44:49.132Z,101050.06
2023-02-03T10:47:55.027Z,101044.88
2023-02-03T10:50:58.513Z,101031.03
2023-02-03T10:54:01.009Z,101031.03
2023-02-03T10:57:15.936Z,101028.44
2023-02-03T11:00:21.223Z,101015.50
2023-02-03T11:03:28.493Z,101014.62
2023-02-03T11:06:33.189Z,100997.31
2023-02-03T11:09:42.118Z,100993.00
2023-02-03T11:12:44.769Z,100987.78
2023-02-03T11:16:20.791Z,100981.72
2023-02-03T11:19:23.731Z,100971.34
2023-02-03T11:22:28.780Z,100980.91
2023-02-03T11:25:33.452Z,100954.94
2023-02-03T11:28:36.581Z,100954.97
2023-02-03T11:31:39.331Z,100948.94
2023-02-03T11:34:46.865Z,100939.41
2023-02-03T11:37:52.131Z,100923.81
2023-02-03T11:41:01.888Z,100910.00
2023-02-03T11:44:22.917Z,100909.97
2023-02-03T11:47:26.069Z,100908.28
2023-02-03T11:50:57.953Z,100902.22
2023-02-03T11:54:17.474Z,100893.59
2023-02-03T11:57:36.798Z,100892.75
2023-02-03T12:00:48.447Z,100880.63
2023-02-03T12:04:13.161Z,100862.50
2023-02-03T12:07:36.888Z,100860.78
2023-02-03T12:10:58.164Z,100853.00
2023-02-03T12:14:16.295Z,100836.56
2023-02-03T12:17:37.741Z,100821.03
2023-02-03T12:21:05.003Z,100817.56
2023-02-03T12:24:28.412Z,100808.94
2023-02-03T12:27:43.290Z,100787.31
2023-02-03T12:30:57.151Z,100784.69
2023-02-03T12:34:25.320Z,100777.78
2023-02-03T12:37:44.182Z,100751.00
2023-02-03T12:40:55.364Z,100744.06
2023-02-03T12:44:04.385Z,100737.97
2023-02-03T12:47:26.619Z,100737.06
2023-02-03T12:50:34.795Z,100717.97
2023-02-03T12:53:42.376Z,100711.91
2023-02-03T12:56:51.495Z,100698.06
2023-02-03T13:00:15.915Z,100692.00
2023-02-03T13:03:19.063Z,100684.19
2023-02-03T13:06:39.805Z,100676.34
2023-02-03T13:10:05.655Z,100659.88
2023-02-03T13:13:14.504Z,100667.69
2023-02-03T13:16:22.344Z,100653.81
2023-02-03T13:19:30.703Z,100642.47
2023-02-03T13:22:34.029Z,100645.06
2023-02-03T13:25:51.441Z,100637.31
2023-02-03T13:29:20.598Z,100638.19
2023-02-03T13:32:31.435Z,100621.78
2023-02-03T13:35:56.344Z,100613.13
2023-02-03T13:39:29.172Z,100616.56
2023-02-03T13:42:37.408Z,100598.31
2023-02-03T13:45:51.063Z,100594.00
2023-02-03T13:48:56.452Z,100575.81
2023-02-03T13:52:00.542Z,100585.31
2023-02-03T13:55:05.514Z,100576.63
2023-02-03T13:58:24.787Z,100563.66
2023-02-03T14:01:33.948Z,100566.25
2023-02-03T14:04:36.878Z,100559.34
2023-02-03T14:07:39.816Z,100556.72
2023-02-03T14:10:42.809Z,100548.91
2023-02-03T14:13:45.520Z,100549.63
2023-02-03T14:16:55.206Z,100546.19
2023-02-03T14:19:57.976Z,100540.03
2023-02-03T14:23:12.965Z,100538.25
2023-02-03T14:26:22.910Z,100528.75
2023-02-03T14:29:32.448Z,100525.31
2023-02-03T14:32:57.964Z,100515.69
2023-02-03T14:36:00.948Z,100508.66
2023-02-03T14:39:23.883Z,100515.59
2023-02-03T14:43:10.520Z,100506.09
2023-02-03T14:46:59.768Z,100500.03
2023-02-03T14:50:17.384Z,100493.88
2023-02-03T14:54:03.797Z,100489.56
2023-02-03T14:57:25.582Z,100486.94
2023-02-03T15:00:33.702Z,100473.88
2023-02-03T15:03:41.711Z,100477.25
2023-02-03T15:06:53.129Z,100465.09
2023-02-03T15:09:56.837Z,100456.34
2023-02-03T15:12:59.620Z,100451.09
2023-02-03T15:16:04.535Z,100443.28
2023-02-03T15:19:19.125Z,100440.56
2023-02-03T15:22:23.600Z,100434.44
2023-02-03T15:25:29.231Z,100439.59
2023-02-03T15:28:32.676Z,100429.12
2023-02-03T15:31:44.969Z,100414.41
2023-02-03T15:34:49.597Z,100418.59
2023-02-03T15:37:58.393Z,100412.63
2023-02-03T15:41:03.867Z,100409.97
2023-02-03T15:44:28.325Z,100409.03
2023-02-03T15:48:03.016Z,100403.91
2023-02-03T15:51:18.504Z,100400.44
2023-02-03T15:54:33.147Z,100399.59
2023-02-03T15:57:37.534Z,100392.78
2023-02-03T16:00:41.268Z,100388.34
2023-02-03T16:03:49.129Z,100389.16
2023-02-03T16:06:53.453Z,100384.91
2023-02-03T16:09:58.401Z,100384.91
2023-02-03T16:13:21.197Z,100390.22
